createdAt,value
2022-11-18T00:03:57.139Z,26.63
2022-11-18T00:09:00.350Z,27.27
2022-11-18T00:14:19.015Z,26.17
2022-11-18T00:19:25.116Z,27.88
2022-11-18T00:24:27.761Z,26.92
2022-11-18T00:29:31.033Z,26.98
2022-11-18T00:34:34.527Z,25.67
2022-11-18T00:39:36.570Z,26.20
2022-11-18T00:44:38.644Z,26.08
2022-11-18T00:49:42.114Z,26.73
2022-11-18T00:54:44.233Z,29.80
2022-11-18T00:59:46.332Z,26.65
2022-11-18T01:04:49.986Z,28.05
2022-11-18T01:09:52.078Z,27.55
2022-11-18T01:14:54.251Z,26.55
2022-11-18T01:19:57.810Z,29.73
2022-11-18T01:24:59.904Z,30.75
2022-11-18T01:30:02.008Z,28.90
2022-11-18T01:35:05.954Z,28.77
2022-11-18T01:40:09.982Z,29.35
2022-11-18T01:45:25.594Z,29.95
2022-11-18T01:50:29.759Z,29.85
2022-11-18T01:55:36.785Z,28.63
2022-11-18T02:00:39.604Z,30.95
2022-11-18T02:05:43.495Z,30.98
2022-11-18T02:10:45.935Z,31.20
2022-11-18T02:16:01.782Z,32.25
2022-11-18T02:21:20.960Z,32.95
2022-11-18T02:27:04.944Z,31.65
2022-11-18T02:32:14.349Z,34.50
2022-11-18T02:37:22.439Z,34.15
2022-11-18T02:42:27.192Z,34.75
2022-11-18T02:47:33.348Z,32.10
2022-11-18T02:52:37.412Z,36.00
2022-11-18T02:57:42.014Z,34.75
2022-11-18T03:02:47.863Z,31.25
2022-11-18T03:07:55.432Z,30.77
2022-11-18T03:13:06.800Z,30.88
2022-11-18T03:18:19.384Z,31.23
2022-11-18T03:23:28.528Z,31.50
2022-11-18T03:28:37.244Z,27.70
2022-11-18T03:33:44.451Z,27.42
2022-11-18T03:38:50.736Z,27.13
2022-11-18T03:43:58.045Z,26.83
2022-11-18T03:49:02.448Z,25.48
2022-11-18T03:54:10.468Z,24.05
2022-11-18T03:59:17.640Z,24.15
2022-11-18T04:04:21.803Z,21.15
2022-11-18T04:09:29.449Z,22.33
2022-11-18T04:14:33.122Z,22.40
2022-11-18T04:19:36.699Z,21.45
2022-11-18T04:24:38.980Z,20.85
2022-11-18T04:29:41.116Z,23.70
2022-11-18T04:34:44.585Z,21.70
2022-11-18T04:39:46.697Z,26.50
2022-11-18T04:44:48.900Z,25.50
2022-11-18T04:49:52.369Z,25.10
2022-11-18T04:54:54.589Z,24.30
2022-11-18T04:59:57.264Z,23.63
2022-11-18T05:05:00.777Z,24.13
2022-11-18T05:10:02.864Z,23.17
2022-11-18T05:15:05.490Z,25.50
2022-11-18T05:20:10.262Z,26.88
2022-11-18T05:25:12.335Z,26.13
2022-11-18T05:30:15.407Z,26.92
2022-11-18T05:35:18.907Z,24.58
2022-11-18T05:40:20.985Z,24.73
2022-11-18T05:45:23.072Z,25.15
2022-11-18T05:50:26.776Z,26.40
2022-11-18T05:55:33.111Z,26.88
2022-11-18T06:00:35.628Z,28.27
2022-11-18T06:05:39.131Z,26.27
2022-11-18T06:10:44.284Z,26.27
2022-11-18T06:15:46.890Z,24.92
2022-11-18T06:20:52.388Z,24.88
2022-11-18T06:25:55.346Z,21.65
2022-11-18T06:30:57.520Z,22.48
2022-11-18T06:36:00.958Z,24.02
2022-11-18T06:41:03.652Z,15.82
2022-11-18T06:46:24.344Z,13.93
2022-11-18T06:51:28.448Z,18.13
2022-11-18T06:56:31.672Z,20.35
2022-11-18T07:01:36.576Z,21.00
2022-11-18T07:06:40.083Z,20.45
2022-11-18T07:11:42.302Z,21.55
2022-11-18T07:16:44.445Z,20.27
2022-11-18T07:21:48.192Z,20.30
2022-11-18T07:26:50.298Z,18.77
2022-11-18T07:31:52.448Z,20.33
2022-11-18T07:36:55.958Z,17.73
2022-11-18T07:41:58.039Z,16.63
2022-11-18T07:47:00.168Z,15.75
2022-11-18T07:52:03.624Z,13.48
2022-11-18T07:57:05.786Z,12.85
2022-11-18T08:02:07.919Z,13.25
2022-11-18T08:07:12.272Z,13.25
2022-11-18T08:12:14.429Z,14.27
2022-11-18T08:17:16.554Z,14.82
2022-11-18T08:22:20.844Z,14.80
2022-11-18T08:27:23.084Z,14.40
2022-11-18T08:32:25.269Z,13.63
2022-11-18T08:37:28.760Z,15.27
2022-11-18T08:42:34.314Z,14.07
2022-11-18T08:47:38.189Z,13.63
2022-11-18T08:52:41.641Z,14.52
2022-11-18T08:57:43.902Z,15.98
2022-11-18T09:02:46.582Z,12.57
2022-11-18T09:07:50.071Z,12.38
2022-11-18T09:12:52.153Z,12.88
2022-11-18T09:17:54.285Z,10.85
2022-11-18T09:22:57.933Z,10.88
2022-11-18T09:28:00.143Z,10.13
2022-11-18T09:33:02.358Z,8.55
2022-11-18T09:38:05.826Z,9.10
2022-11-18T09:43:17.254Z,10.13
2022-11-18T09:48:42.447Z,9.07
2022-11-18T09:53:46.776Z,12.23
2022-11-18T09:58:49.653Z,9.20
2022-11-18T10:03:51.875Z,7.40
2022-11-18T10:09:06.800Z,7.22
2022-11-18T10:14:23.870Z,7.80
2022-11-18T10:19:31.378Z,8.05
2022-11-18T10:24:42.328Z,8.63
2022-11-18T10:29:46.289Z,8.07
2022-11-18T10:34:50.737Z,6.60
2022-11-18T10:39:55.658Z,7.35
2022-11-18T10:45:15.486Z,7.22
2022-11-18T10:50:30.913Z,5.22
2022-11-18T10:55:34.753Z,12.15
2022-11-18T11:00:48.342Z,5.75
2022-11-18T11:05:50.508Z,10.98
2022-11-18T11:10:58.676Z,12.32
2022-11-18T11:16:04.599Z,2.60
2022-11-18T11:21:13.301Z,3.00
2022-11-18T11:31:56.870Z,1.98
2022-11-18T11:37:06.384Z,2.55
2022-11-18T11:42:16.411Z,2.08
2022-11-18T11:47:44.567Z,2.10
2022-11-18T11:52:58.265Z,2.05
2022-11-18T11:58:12.813Z,6.32
2022-11-18T12:03:50.433Z,8.05
2022-11-18T12:09:05.275Z,2.50
2022-11-18T12:14:13.927Z,3.10
2022-11-18T12:19:21.607Z,4.20
2022-11-18T12:24:36.563Z,2.53
2022-11-18T12:29:45.172Z,2.92
2022-11-18T12:34:56.374Z,2.60
2022-11-18T12:40:01.813Z,2.78
2022-11-18T12:45:53.418Z,3.00
2022-11-18T12:50:56.743Z,4.95
2022-11-18T12:55:59.328Z,10.07
2022-11-18T13:01:13.792Z,8.88
2022-11-18T13:06:25.335Z,9.10
2022-11-18T13:11:47.609Z,8.38
2022-11-18T13:17:05.192Z,7.85
2022-11-18T13:22:36.149Z,8.45
2022-11-18T13:27:50.360Z,8.23
2022-11-18T13:32:58.718Z,7.40
2022-11-18T13:38:02.304Z,7.72
2022-11-18T13:43:04.501Z,7.97
2022-11-18T13:48:14.033Z,8.70
2022-11-18T13:53:29.305Z,9.18
2022-11-18T13:59:02.665Z,8.35
2022-11-18T14:04:04.772Z,9.18
2022-11-18T14:09:16.867Z,8.07
2022-11-18T14:14:30.954Z,6.18
2022-11-18T14:19:35.002Z,7.00
2022-11-18T14:24:37.057Z,6.80
2022-11-18T14:29:39.142Z,5.85
2022-11-18T14:34:42.724Z,6.07
2022-11-18T14:39:56.229Z,6.13
2022-11-18T14:44:58.289Z,4.68
2022-11-18T14:50:02.204Z,5.00
2022-11-18T14:55:04.523Z,4.00
2022-11-18T15:00:07.872Z,4.22
2022-11-18T15:05:11.478Z,4.15
2022-11-18T15:10:16.609Z,4.45
2022-11-18T15:15:18.830Z,5.18
2022-11-18T15:20:24.142Z,5.85
2022-11-18T15:25:26.210Z,5.95
2022-11-18T15:30:28.364Z,6.93
2022-11-18T15:35:31.858Z,7.38
2022-11-18T15:40:35.147Z,6.88
2022-11-18T15:45:37.582Z,7.97
2022-11-18T15:50:41.615Z,8.43
2022-11-18T15:55:43.786Z,8.13
2022-11-18T16:00:45.958Z,9.38
2022-11-18T16:05:49.463Z,9.02
2022-11-18T16:11:25.348Z,8.88
2022-11-18T16:16:28.162Z,8.82
2022-11-18T16:21:34.117Z,9.65
2022-11-18T16:26:37.362Z,9.98
2022-11-18T16:31:43.864Z,9.85
2022-11-18T16:36:49.247Z,10.18
2022-11-18T16:41:53.644Z,12.80
2022-11-18T16:46:58.555Z,10.63
2022-11-18T16:52:01.994Z,10.35
2022-11-18T16:57:04.301Z,10.07
2022-11-18T17:02:07.336Z,10.10
2022-11-18T17:07:10.889Z,9.85
2022-11-18T17:12:13.439Z,11.60
2022-11-18T17:17:16.261Z,10.40
2022-11-18T17:22:20.136Z,10.50
2022-11-18T17:27:22.367Z,12.00
2022-11-18T17:32:24.972Z,12.02
2022-11-18T17:37:30.111Z,11.38
2022-11-18T17:42:33.366Z,13.40
2022-11-18T17:47:35.908Z,13.65
2022-11-18T17:52:39.761Z,13.52
2022-11-18T17:57:42.299Z,13.38
2022-11-18T18:02:45.655Z,15.77
2022-11-18T18:07:51.100Z,14.13
2022-11-18T18:13:10.847Z,13.32
2022-11-18T18:18:13.355Z,13.93
2022-11-18T18:23:17.544Z,14.45
2022-11-18T18:28:22.234Z,16.50
2022-11-18T18:33:25.022Z,15.55
2022-11-18T18:38:29.340Z,17.80
2022-11-18T18:43:32.570Z,16.75
2022-11-18T18:48:36.480Z,16.23
2022-11-18T18:53:40.298Z,17.08
2022-11-18T18:58:43.235Z,16.17
2022-11-18T19:03:47.837Z,15.93
2022-11-18T19:08:52.472Z,15.80
2022-11-18T19:13:55.951Z,18.27
2022-11-18T19:18:59.994Z,17.90
2022-11-18T19:24:22.891Z,20.33
2022-11-18T19:29:29.656Z,20.02
2022-11-18T19:34:33.199Z,21.27
2022-11-18T19:39:38.850Z,24.27
2022-11-18T19:44:45.132Z,23.45
2022-11-18T19:49:49.476Z,24.67
2022-11-18T19:54:55.550Z,27.05
2022-11-18T19:59:58.576Z,27.33
2022-11-18T20:05:19.170Z,26.90
2022-11-18T20:10:24.026Z,27.02
2022-11-18T20:15:26.953Z,28.77
2022-11-18T20:20:29.752Z,30.25
2022-11-18T20:25:34.672Z,29.92
2022-11-18T20:30:37.579Z,29.38
2022-11-18T20:35:40.576Z,32.17
2022-11-18T20:40:44.868Z,29.92
2022-11-18T20:45:56.330Z,29.75
2022-11-18T20:51:03.747Z,29.85
2022-11-18T20:56:08.940Z,30.08
2022-11-18T21:01:13.489Z,29.35
2022-11-18T21:06:17.582Z,28.50
2022-11-18T21:11:22.005Z,27.90
2022-11-18T21:16:24.887Z,29.00
2022-11-18T21:21:46.072Z,29.80
2022-11-18T21:26:51.605Z,30.23
2022-11-18T21:31:54.687Z,31.05
2022-11-18T21:36:56.929Z,31.70
2022-11-18T21:42:00.657Z,31.88
2022-11-18T21:47:03.003Z,30.80
2022-11-18T21:52:05.342Z,32.30
2022-11-18T21:57:08.779Z,30.67
2022-11-18T22:02:14.953Z,31.58
2022-11-18T22:07:17.081Z,30.42
2022-11-18T22:12:20.538Z,31.05
2022-11-18T22:17:22.594Z,31.73
2022-11-18T22:22:24.682Z,30.60
2022-11-18T22:27:28.411Z,30.92
2022-11-18T22:32:30.462Z,32.42
2022-11-18T22:37:32.576Z,31.33
2022-11-18T22:42:51.193Z,30.80
2022-11-18T22:47:53.278Z,31.83
2022-11-18T22:52:55.420Z,29.83
2022-11-18T22:57:58.929Z,29.77
2022-11-18T23:03:01.014Z,30.95
2022-11-18T23:08:03.149Z,29.77
2022-11-18T23:13:24.350Z,30.60
2022-11-18T23:18:26.862Z,31.98
2022-11-18T23:23:29.116Z,30.92
2022-11-18T23:28:32.699Z,29.20
2022-11-18T23:33:35.546Z,31.48
2022-11-18T23:38:38.023Z,30.48
2022-11-18T23:43:42.257Z,32.38
2022-11-18T23:48:45.053Z,30.10
2022-11-18T23:53:48.296Z,29.60
2022-11-18T23:58:53.401Z,29.55
